Station: Wynyard  

  Atmospheric Gas Attenuation - ITU Rec 676-11   ----------------- dB/100km -----------------
Date Time Temp RH % AH g/m3 Dew Point Wind Direction Speed kph Gust kph Barometer mB Rainfall Since 9am 24GHz 47GHz 76GHz 122GHz 134GHz 241GHz
08/05 12:30 14.9 66 8.41 8.6 24 37 1017.6 0 19.1 25.4 38.7 101.4 94.9 326.3
08/05 12:20 14.5 67 8.33 8.5 24 28 1017.7 0 19.0 25.4 38.6 101.1 94.4 324.4
08/05 12:10 14.2 68 8.3 8.4 28 32 1017.5 0 18.9 25.5 38.6 101.2 94.3 324.2
08/05 12:00 14 67 8.08 8 26 37 1017.5 0 18.5 25.2 37.8 99.1 91.7 315.0
08/05 11:50 14.1 70 8.5 8.7 32 35 1017.3 0 19.4 25.8 39.4 103.4 97.0 333.7
08/05 11:40 13.7 70 8.29 8.3 24 28 1017.4 0 18.9 25.6 38.8 101.7 94.8 325.8
08/05 11:30 13.8 71 8.46 8.6 20 30 1017.4 0 19.3 25.8 39.4 103.4 96.9 333.2
08/05 11:20 13.7 71 8.41 8.5 19 20 1017.2 0 19.2 25.8 39.3 103.0 96.3 331.2
08/05 11:10 13.9 71 8.51 8.7 19 22 1017 0 19.4 25.9 39.6 103.7 97.4 334.9
08/05 11:00 13.5 74 8.66 9 26 37 1017 0 19.7 26.2 40.4 105.9 99.9 343.6
08/05 10:50 12.9 74 8.34 8.4 20 26 1017 0 19.1 25.9 39.4 103.2 96.4 331.3
08/05 10:40 13.2 73 8.38 8.5 24 28 1016.8 0 19.1 25.8 39.4 103.3 96.5 331.8
08/05 10:30 13.8 72 8.58 8.8 24 33 1016.6 0 19.5 26.0 39.9 104.6 98.4 338.5
08/05 10:20 14.1 69 8.37 8.5 22 28 1016.3 0 19.1 25.6 38.9 101.9 95.3 327.5
08/05 10:10 14.1 68 8.25 8.3 26 32 1016.2 0 18.8 25.4 38.4 100.6 93.7 322.0
08/05 10:00 13.9 69 8.27 8.3 30 41 1016.1 0 18.9 25.4 38.6 101.1 94.2 323.7
08/05 09:50 13.5 68 7.95 7.7 30 37 1015.9 0 18.2 25.0 37.5 98.2 90.5 310.6
08/05 09:40 13.4 72 8.37 8.5 24 30 1016 0 19.1 25.7 39.2 102.8 96.1 330.3
08/05 09:30 13.4 71 8.25 8.3 28 39 1015.9 0 18.9 25.5 38.7 101.5 94.5 324.8
08/05 09:20 12.9 73 8.23 8.2 22 26 1015.8 0 18.8 25.7 38.9 101.9 94.8 325.9
08/05 09:10 12.8 70 7.84 7.5 24 28 1015.7 0 18.0 25.0 37.4 97.9 89.8 308.3
08/05 09:00 12.9 71 8 7.8 20 30 1015.6 0 18.3 25.3 37.9 99.5 91.8 315.2
08/05 08:50 13 69 7.83 7.5 24 24 1015.3 1 18.0 25.0 37.2 97.5 89.4 307.0
08/05 08:40 12.9 68 7.66 7.1 26 30 1015 1 17.6 24.7 36.6 95.8 87.3 299.6
08/05 08:30 12.8 67 7.51 6.8 20 33 1014.9 1 17.3 24.5 36.0 94.3 85.5 293.1
08/05 08:20 12.4 68 7.43 6.7 17 20 1014.7 1 17.2 24.5 35.9 94.0 84.9 291.0
08/05 08:10 12.2 70 7.55 6.9 20 24 1014.5 1 17.4 24.7 36.4 95.4 86.6 297.1
08/05 08:00 12.1 72 7.72 7.2 17 35 1014.5 1 17.8 25.0 37.2 97.4 89.0 305.2
08/05 07:50 12 72 7.67 7.1 15 17 1014.1 1 17.7 24.9 37.0 96.9 88.4 303.2
08/05 07:40 12.2 71 7.66 7.1 28 39 1013.8 1 17.7 24.9 36.8 96.5 88.0 301.9
08/05 07:30 12.1 71 7.61 7 19 37 1013.5 1 17.6 24.8 36.7 96.1 87.5 300.0
08/05 07:20 11.8 73 7.68 7.1 22 24 1013.1 1 17.7 25.0 37.1 97.2 88.7 304.2
08/05 07:10 11.7 72 7.53 6.8 20 28 1012.7 1 17.4 24.7 36.5 95.7 86.8 297.6
08/05 07:00 11.9 71 7.52 6.8 28 44 1012.4 1 17.4 24.7 36.4 95.3 86.4 296.3
08/05 06:50 11.7 71 7.43 6.6 30 37 1011.9 1 17.2 24.6 36.1 94.5 85.4 292.9
08/05 06:40 11.5 71 7.33 6.4 26 32 1011.9 1 17.0 24.5 35.8 93.7 84.4 289.0
08/05 06:30 11.6 72 7.48 6.7 26 39 1012 1 17.3 24.7 36.3 95.2 86.2 295.5
08/05 06:20 11.7 71 7.43 6.6 35 41 1011.8 1 17.2 24.6 36.1 94.5 85.4 292.8
08/05 06:10 11.9 72 7.63 7 33 43 1011.9 1 17.6 24.8 36.8 96.4 87.8 301.2
08/05 06:00 11.9 70 7.41 6.6 24 39 1011.7 1 17.1 24.5 35.9 94.1 85.0 291.2
08/05 05:50 11.8 71 7.47 6.7 20 24 1011.4 1 17.3 24.6 36.2 94.8 85.8 294.2
08/05 05:40 11.5 73 7.54 6.8 22 26 1011.4 1 17.4 24.8 36.6 95.9 87.1 298.5
08/05 05:30 12 72 7.67 7.1 20 33 1011.4 1 17.7 24.8 36.9 96.6 88.2 302.6
08/05 05:20 11.9 72 7.63 7 17 20 1011 1 17.6 24.8 36.7 96.3 87.8 301.0
08/05 05:10 11.5 73 7.54 6.8 19 24 1010.9 1 17.4 24.8 36.6 95.8 87.0 298.4
08/05 05:00 11.9 72 7.63 7 30 44 1010.9 1 17.6 24.8 36.7 96.3 87.8 301.0
08/05 04:50 11.7 75 7.85 7.4 26 35 1010.6 1 18.1 25.2 37.7 98.9 90.8 311.8
08/05 04:40 11.9 76 8.05 7.8 17 20 1010.6 1 18.5 25.5 38.4 100.7 93.3 320.3
08/05 04:30 11.8 76 8 7.7 19 32 1010.5 1 18.4 25.4 38.2 100.3 92.7 318.3
08/05 04:20 11.8 75 7.89 7.5 22 28 1010.3 1 18.2 25.2 37.8 99.1 91.2 313.2
08/05 04:10 11.6 74 7.69 7.1 15 19 1010.1 1 17.7 24.9 37.1 97.2 88.8 304.7
08/05 04:00 11.9 71 7.52 6.8 30 43 1010 1 17.4 24.6 36.3 95.0 86.3 295.7
08/05 03:50 11.9 71 7.52 6.8 24 30 1010 1 17.4 24.6 36.3 95.0 86.3 295.7
08/05 03:40 12 71 7.57 6.9 24 30 1009.8 1 17.5 24.6 36.4 95.4 86.8 297.6
08/05 03:30 12.3 72 7.82 7.4 28 57 1010 1 18.0 24.9 37.3 97.7 89.7 307.9
08/05 03:20 11.9 77 8.16 8 20 28 1009.9 1 18.7 25.6 38.8 101.9 94.7 325.2
08/05 03:10 12.2 77 8.31 8.3 32 43 1009.8 1 19.0 25.8 39.3 103.1 96.3 330.9
08/05 03:00 12.2 78 8.42 8.5 30 44 1009.9 1 19.3 25.9 39.7 104.3 97.8 336.1
08/05 02:50 11.8 82 8.63 8.8 24 30 1009.8 1 19.8 26.4 40.8 107.1 101.1 347.7
08/05 02:40 11.9 81 8.58 8.7 26 35 1009.6 1 19.6 26.3 40.5 106.4 100.3 344.8
08/05 02:30 12 81 8.63 8.8 33 50 1009.7 1 19.7 26.3 40.7 106.8 100.8 346.8
08/05 02:20 12 82 8.74 9 39 50 1009.2 1 20.0 26.5 41.1 108.0 102.3 351.9
08/05 02:10 12 83 8.85 9.2 41 46 1009 1 20.2 26.7 41.5 109.2 103.8 357.0
08/05 02:00 12 82 8.74 9 43 59 1009 1 20.0 26.5 41.1 108.0 102.3 351.8
08/05 01:50 11.8 83 8.74 9 35 46 1009 1 20.0 26.6 41.2 108.2 102.5 352.7
08/05 01:40 12 83 8.85 9.2 39 48 1008.9 1 20.2 26.7 41.5 109.2 103.7 357.0
08/05 01:30 11.7 84 8.79 9.1 37 54 1009.3 1 20.1 26.7 41.5 109.0 103.4 355.6
08/05 01:20 12.1 83 8.9 9.3 39 50 1009.1 1 20.3 26.7 41.7 109.6 104.3 359.0
08/05 01:10 12 83 8.85 9.2 39 46 1009 1 20.2 26.7 41.5 109.2 103.8 357.0
08/05 01:00 12.1 83 8.9 9.3 39 56 1009 1 20.3 26.7 41.7 109.6 104.3 359.0
08/05 00:50 12.2 83 8.96 9.4 44 61 1009.1 1 20.4 26.8 41.9 110.1 105.0 361.4
08/05 00:40 12.2 84 9.07 9.6 37 46 1009 1 20.7 27.0 42.4 111.3 106.5 366.6
08/05 00:30 12.2 85 9.17 9.8 43 65 1009.1 1 20.9 27.2 42.8 112.5 107.9 371.5
08/05 00:20 12.2 86 9.28 9.9 39 52 1009 1 21.1 27.3 43.2 113.7 109.4 376.7
08/05 00:10 12.1 88 9.44 10.2 39 44 1009 1 21.5 27.6 44.0 115.6 111.7 385.0
08/05 00:00 12.2 87 9.39 10.1 48 61 1009.1 1 21.4 27.5 43.7 114.9 110.9 382.1
07/05 23:50 12.2 87 9.39 10.1 52 59 1009 1 21.4 27.5 43.7 114.9 110.9 382.0
07/05 23:40 12.1 89 9.55 10.3 46 54 1009.1 1 21.7 27.8 44.4 116.9 113.3 390.4
07/05 23:30 12 91 9.7 10.6 41 57 1009.3 1 22.0 28.1 45.1 118.8 115.5 398.3
07/05 23:20 11.9 93 9.85 10.8 46 54 1009.4 1 22.4 28.4 45.9 120.6 117.8 406.2
07/05 23:10 12 92 9.81 10.7 41 46 1009.4 1 22.3 28.3 45.6 120.0 117.1 403.7
07/05 23:00 11.9 94 9.96 11 39 52 1009.7 1 22.6 28.6 46.3 121.9 119.4 411.8
07/05 22:50 11.8 93 9.79 10.7 35 41 1010 1 22.3 28.4 45.7 120.2 117.2 404.0
07/05 22:40 11.9 94 9.96 11 43 50 1010.1 1 22.6 28.6 46.4 122.0 119.5 411.9
07/05 22:30 11.8 94 9.89 10.9 37 54 1010.2 0.6 22.5 28.6 46.1 121.4 118.6 409.0
07/05 22:20 11.5 94 9.71 10.6 37 41 1010.1 0.6 22.1 28.3 45.5 119.7 116.5 401.6
07/05 22:10 11.6 94 9.77 10.7 39 50 1010.2 0.6 22.2 28.4 45.7 120.3 117.2 404.1
07/05 22:00 11.2 94 9.53 10.3 33 43 1010.4 0.6 21.7 28.1 44.9 118.2 114.5 394.3
07/05 21:50 11.2 95 9.63 10.4 33 39 1010.4 0.6 21.9 28.3 45.4 119.3 115.9 399.3
07/05 21:40 11.1 94 9.47 10.2 28 33 1010.3 0.6 21.6 28.1 44.7 117.6 113.8 391.9
07/05 21:30 11.2 94 9.53 10.3 33 50 1010.7 0.6 21.7 28.1 44.9 118.2 114.5 394.4
07/05 21:20 11.2 93 9.43 10.1 33 39 1010.6 0.6 21.5 28.0 44.5 117.0 113.1 389.5
07/05 21:10 10.9 95 9.45 10.1 28 32 1011 0.6 21.6 28.1 44.8 117.8 113.8 392.1
07/05 21:00 10.6 98 9.57 10.3 24 37 1011.1 0.6 21.8 28.4 45.5 119.6 116.0 399.7
07/05 20:50 10.1 99 9.36 9.9 22 26 1010.9 0.6 21.4 28.2 44.9 117.9 113.7 391.7
07/05 20:40 9.7 99 9.13 9.6 24 26 1011.3 0.6 20.9 28.0 44.1 115.9 111.1 382.3
07/05 20:30 9.2 99 8.84 9.1 20 24 1011.5 0.6 20.3 27.6 43.1 113.3 107.7 370.4
07/05 20:20 9.1 99 8.79 9 19 20 1011.6 0.6 20.2 27.6 43.0 112.9 107.1 368.5
07/05 20:10 9 99 8.73 8.9 17 19 1011.9 0.6 20.1 27.5 42.8 112.4 106.5 366.0
07/05 20:00 9.1 99 8.79 9 17 20 1012.2 0.6 20.2 27.6 43.0 113.0 107.2 368.6

Last Refresh: 08-May-2026 12:09:35

Bureau of Meteorology